Time;durP1;ratioP1;P1;durP2;ratioP2;P2;SDS_P1;SDS_P2;PMS_P1;PMS_P2;Temp;Humidity;BMP_temperature;BMP_pressure;BME280_temperature;BME280_humidity;BME280_pressure;Samples;Min_cycle;Max_cycle;Signal;HPM_P1;HPM_P2
2024/01/05 00:01:58;;;;;;;6.10;4.88;;;21.90;99.90;;;;;;5024967;28;20100;-50
2024/01/05 00:04:24;;;;;;;6.78;4.38;;;21.90;99.90;;;;;;5032847;28;20109;-50
2024/01/05 00:06:50;;;;;;;6.78;4.55;;;21.90;99.90;;;;;;5032833;28;20462;-50
2024/01/05 00:09:16;;;;;;;11.52;4.75;;;21.90;99.90;;;;;;5031705;28;20188;-50
2024/01/05 00:11:42;;;;;;;7.75;5.30;;;21.80;99.90;;;;;;5032884;28;20029;-50
2024/01/05 00:14:08;;;;;;;7.28;5.47;;;21.80;99.90;;;;;;5032553;28;20378;-50
2024/01/05 00:16:33;;;;;;;6.38;5.10;;;21.80;99.90;;;;;;5033020;28;20030;-50
2024/01/05 00:18:59;;;;;;;7.22;5.15;;;21.80;99.90;;;;;;5032634;28;20031;-50
2024/01/05 00:21:27;;;;;;;7.75;5.28;;;21.80;99.90;;;;;;5032707;28;20083;-50
2024/01/05 00:23:54;;;;;;;7.80;5.35;;;21.80;99.90;;;;;;5032555;28;20474;-50
2024/01/05 00:26:20;;;;;;;7.97;5.63;;;21.80;99.90;;;;;;5032457;28;20055;-50
2024/01/05 00:28:47;;;;;;;7.88;5.55;;;21.70;99.90;;;;;;5032650;28;20378;-50
2024/01/05 00:31:15;;;;;;;9.55;5.78;;;21.70;99.90;;;;;;5032325;28;20017;-50
2024/01/05 00:33:41;;;;;;;7.70;5.22;;;21.70;99.90;;;;;;5032362;28;20028;-50
2024/01/05 00:36:08;;;;;;;6.65;5.20;;;21.70;99.90;;;;;;5032464;28;20033;-50
2024/01/05 00:38:35;;;;;;;9.70;5.55;;;21.70;99.90;;;;;;5032565;28;20053;-50
2024/01/05 00:41:01;;;;;;;8.47;5.37;;;21.70;99.90;;;;;;5032240;28;20029;-50
2024/01/05 00:43:27;;;;;;;7.55;5.35;;;21.70;99.90;;;;;;5032245;28;20096;-50
2024/01/05 00:45:53;;;;;;;8.82;5.50;;;21.70;99.90;;;;;;5032275;28;20101;-50
2024/01/05 00:48:20;;;;;;;12.10;6.90;;;21.70;99.90;;;;;;5032054;28;20442;-50
2024/01/05 00:50:45;;;;;;;7.32;5.45;;;21.70;99.90;;;;;;5032160;28;20416;-50
2024/01/05 00:53:11;;;;;;;8.52;5.72;;;21.70;99.90;;;;;;5032105;28;20462;-51
2024/01/05 00:55:37;;;;;;;8.95;5.40;;;21.70;99.90;;;;;;5032313;28;20397;-50
2024/01/05 00:58:03;;;;;;;11.57;5.82;;;21.70;99.90;;;;;;5030936;28;20034;-50
2024/01/05 01:00:29;;;;;;;6.65;5.28;;;21.60;99.90;;;;;;5041825;22;20436;-53
2024/01/05 01:02:55;;;;;;;8.10;5.57;;;21.60;99.90;;;;;;5020693;28;20048;-53
2024/01/05 01:05:21;;;;;;;8.23;5.43;;;21.60;99.90;;;;;;5030525;28;20454;-53
2024/01/05 01:07:47;;;;;;;7.63;5.53;;;21.60;99.90;;;;;;5031997;28;20049;-52
2024/01/05 01:10:13;;;;;;;7.82;5.78;;;21.70;99.90;;;;;;5031019;28;20067;-52
2024/01/05 01:12:39;;;;;;;10.02;5.70;;;21.60;99.90;;;;;;5004251;28;20156;-52
2024/01/05 01:15:06;;;;;;;6.40;5.63;;;21.60;99.90;;;;;;5031480;28;20521;-51
2024/01/05 01:17:33;;;;;;;8.63;5.70;;;21.60;99.90;;;;;;5031567;28;20104;-51
2024/01/05 01:19:58;;;;;;;6.90;5.82;;;21.60;99.90;;;;;;5031881;28;20033;-52
2024/01/05 01:22:24;;;;;;;6.97;5.72;;;21.60;99.90;;;;;;5031620;28;20033;-51
2024/01/05 01:24:50;;;;;;;8.73;5.95;;;21.60;99.90;;;;;;5031715;28;20059;-52
2024/01/05 01:27:16;;;;;;;6.40;5.00;;;21.60;99.90;;;;;;5031534;28;20246;-51
2024/01/05 01:29:42;;;;;;;7.10;5.10;;;21.60;99.90;;;;;;5031689;28;20047;-52
2024/01/05 01:32:11;;;;;;;7.95;6.25;;;21.60;99.90;;;;;;5031606;28;20053;-52
2024/01/05 01:34:40;;;;;;;7.63;5.55;;;21.60;99.90;;;;;;5031987;28;20025;-52
2024/01/05 01:37:05;;;;;;;8.52;5.57;;;21.60;99.90;;;;;;5031890;28;20126;-52
2024/01/05 01:39:31;;;;;;;8.80;5.55;;;21.50;99.90;;;;;;5031349;28;20474;-52
2024/01/05 01:41:58;;;;;;;8.77;5.55;;;21.50;99.90;;;;;;5031552;28;20132;-52
2024/01/05 01:44:24;;;;;;;7.50;5.57;;;21.50;99.90;;;;;;5031391;28;20041;-52
2024/01/05 01:46:55;;;;;;;7.38;5.03;;;21.60;99.90;;;;;;5031439;28;20018;-52
2024/01/05 01:49:22;;;;;;;7.07;5.38;;;21.50;99.90;;;;;;5031459;28;20018;-53
2024/01/05 01:51:48;;;;;;;7.95;5.53;;;21.50;99.90;;;;;;5030233;28;20197;-52
2024/01/05 01:54:15;;;;;;;7.90;5.57;;;21.50;99.90;;;;;;5031343;28;20029;-51
2024/01/05 01:56:43;;;;;;;7.60;5.97;;;21.50;99.90;;;;;;5030062;28;20107;-51
2024/01/05 01:59:09;;;;;;;6.40;5.43;;;21.50;99.90;;;;;;5030052;28;20025;-52
2024/01/05 02:01:36;;;;;;;6.65;5.65;;;21.50;99.90;;;;;;5031873;28;20516;-52
2024/01/05 02:04:03;;;;;;;6.45;5.05;;;21.50;99.90;;;;;;5031223;28;20100;-52
2024/01/05 02:06:29;;;;;;;6.65;5.80;;;21.50;99.90;;;;;;5031391;28;20052;-52
2024/01/05 02:08:55;;;;;;;9.30;6.45;;;21.50;99.90;;;;;;5031140;28;20018;-53
2024/01/05 02:11:21;;;;;;;8.43;5.88;;;21.50;99.90;;;;;;5031325;28;20032;-53
2024/01/05 02:13:48;;;;;;;6.80;5.32;;;21.50;99.90;;;;;;5031022;28;20038;-53
2024/01/05 02:16:14;;;;;;;7.85;5.97;;;21.40;99.90;;;;;;5031499;28;20394;-52
2024/01/05 02:18:40;;;;;;;7.72;5.78;;;21.40;99.90;;;;;;5031206;28;20424;-52
2024/01/05 02:21:08;;;;;;;7.13;5.60;;;21.40;99.90;;;;;;5031395;28;20029;-52
2024/01/05 02:23:35;;;;;;;7.50;6.00;;;21.40;99.90;;;;;;5031466;28;20029;-52
2024/01/05 02:26:01;;;;;;;7.03;5.72;;;21.40;99.90;;;;;;5030983;28;20087;-53
2024/01/05 02:28:27;;;;;;;8.45;6.07;;;21.40;99.90;;;;;;5033858;28;20390;-52
2024/01/05 02:30:56;;;;;;;9.30;6.22;;;21.40;99.90;;;;;;5034508;28;20500;-53
2024/01/05 02:33:23;;;;;;;6.47;5.60;;;21.40;99.90;;;;;;5034658;28;20037;-53
2024/01/05 02:35:50;;;;;;;6.67;5.77;;;21.40;99.90;;;;;;5034621;28;20036;-53
2024/01/05 02:38:16;;;;;;;6.75;5.80;;;21.40;99.90;;;;;;5034439;28;20024;-53
2024/01/05 02:40:41;;;;;;;7.30;5.65;;;21.40;99.90;;;;;;5034633;28;20030;-53
2024/01/05 02:43:07;;;;;;;6.70;5.65;;;21.40;99.90;;;;;;5034507;28;20536;-52
2024/01/05 02:45:35;;;;;;;7.55;5.75;;;21.40;99.90;;;;;;5034690;28;20025;-53
2024/01/05 02:48:01;;;;;;;6.30;5.13;;;21.40;99.90;;;;;;5034325;28;20071;-53
2024/01/05 02:50:27;;;;;;;7.05;5.90;;;21.40;99.90;;;;;;5034357;28;20489;-54
2024/01/05 02:52:52;;;;;;;5.90;5.07;;;21.40;99.90;;;;;;5034306;28;20025;-53
2024/01/05 02:55:18;;;;;;;6.45;5.45;;;21.40;99.90;;;;;;5034210;28;20033;-53
2024/01/05 02:57:44;;;;;;;6.88;5.60;;;21.30;99.90;;;;;;5034406;28;20061;-53
2024/01/05 03:00:12;;;;;;;6.18;5.57;;;21.30;99.90;;;;;;5047398;23;20432;-48
2024/01/05 03:02:38;;;;;;;6.75;5.38;;;21.30;99.90;;;;;;5021929;28;20095;-49
2024/01/05 03:05:05;;;;;;;5.90;5.28;;;21.40;99.90;;;;;;5034446;28;20017;-48
2024/01/05 03:07:31;;;;;;;6.57;5.03;;;21.30;99.90;;;;;;5034115;28;20029;-48
2024/01/05 03:09:57;;;;;;;5.95;4.97;;;21.30;99.90;;;;;;5034162;28;20409;-48
2024/01/05 03:12:23;;;;;;;6.25;5.13;;;21.30;99.90;;;;;;5033946;28;20023;-48
2024/01/05 03:14:48;;;;;;;6.68;4.75;;;21.30;99.90;;;;;;5032689;28;20018;-48
2024/01/05 03:17:15;;;;;;;6.25;5.25;;;21.30;99.90;;;;;;5034026;28;20030;-49
2024/01/05 03:19:41;;;;;;;7.95;4.90;;;21.30;99.90;;;;;;5033735;28;20100;-49
2024/01/05 03:22:07;;;;;;;6.28;4.90;;;21.30;99.90;;;;;;5033700;28;20447;-49
2024/01/05 03:24:32;;;;;;;5.93;4.45;;;21.30;99.90;;;;;;5033648;28;20028;-49
2024/01/05 03:26:58;;;;;;;11.23;4.82;;;21.30;99.90;;;;;;5033634;28;20548;-49
2024/01/05 03:29:24;;;;;;;8.75;5.05;;;21.30;99.90;;;;;;5033734;28;20096;-48
2024/01/05 03:31:50;;;;;;;6.90;4.70;;;21.30;99.90;;;;;;5032389;28;20032;-49
2024/01/05 03:34:15;;;;;;;7.68;4.95;;;21.30;99.90;;;;;;5033415;28;20048;-48
2024/01/05 03:36:41;;;;;;;7.55;5.10;;;21.30;99.90;;;;;;5033436;28;20025;-48
2024/01/05 03:39:07;;;;;;;7.25;5.20;;;21.30;99.90;;;;;;5033006;28;20091;-48
2024/01/05 03:41:34;;;;;;;7.72;5.78;;;21.30;99.90;;;;;;5033296;28;20048;-49
2024/01/05 03:44:00;;;;;;;7.00;5.00;;;21.30;99.90;;;;;;5033314;28;20056;-49
2024/01/05 03:46:26;;;;;;;8.38;4.55;;;21.30;99.90;;;;;;5033374;28;20045;-48
2024/01/05 03:48:52;;;;;;;6.45;4.80;;;21.30;99.90;;;;;;5033668;28;20233;-48
2024/01/05 03:51:18;;;;;;;8.25;5.07;;;21.20;99.90;;;;;;5033169;28;20022;-48
2024/01/05 03:53:44;;;;;;;5.53;4.50;;;21.20;99.90;;;;;;5025069;28;20037;-48
2024/01/05 03:56:10;;;;;;;8.55;4.50;;;21.30;99.90;;;;;;5027349;28;20029;-48
2024/01/05 03:58:36;;;;;;;7.47;5.18;;;21.20;99.90;;;;;;5033120;28;20081;-49
2024/01/05 04:01:02;;;;;;;6.15;4.82;;;21.30;99.90;;;;;;5033387;28;20045;-48
2024/01/05 04:03:28;;;;;;;5.82;4.03;;;21.20;99.90;;;;;;5032895;28;20386;-48
2024/01/05 04:05:54;;;;;;;8.07;4.40;;;21.20;99.90;;;;;;5033072;28;20033;-48
2024/01/05 04:08:21;;;;;;;8.18;5.07;;;21.20;99.90;;;;;;5032953;28;20029;-48
2024/01/05 04:10:47;;;;;;;6.20;4.05;;;21.20;99.90;;;;;;5032702;28;20378;-48
2024/01/05 04:13:13;;;;;;;6.60;4.13;;;21.20;99.90;;;;;;5032839;28;20030;-50
2024/01/05 04:15:39;;;;;;;5.20;4.15;;;21.20;99.90;;;;;;5032556;28;20034;-49
2024/01/05 04:18:06;;;;;;;8.23;4.47;;;21.20;99.90;;;;;;5031459;28;20036;-49
2024/01/05 04:20:32;;;;;;;5.80;4.05;;;21.20;99.90;;;;;;5032601;28;20022;-48
2024/01/05 04:22:59;;;;;;;6.60;4.18;;;21.20;99.90;;;;;;5032557;28;20033;-48
2024/01/05 04:25:25;;;;;;;6.95;4.13;;;21.20;99.90;;;;;;5032856;28;20053;-48
2024/01/05 04:27:52;;;;;;;4.38;3.78;;;21.20;99.90;;;;;;5032426;28;20057;-48
2024/01/05 04:30:19;;;;;;;5.97;4.20;;;21.20;99.90;;;;;;5032518;28;20535;-48
2024/01/05 04:32:45;;;;;;;;;;;21.20;99.90;;;;;;5032674;28;20024;-48
2024/01/05 04:35:11;;;;;;;7.38;4.50;;;21.20;99.90;;;;;;5032228;28;19905;-48
2024/01/05 04:37:36;;;;;;;7.57;4.32;;;21.20;99.90;;;;;;5032183;28;20029;-49
2024/01/05 04:40:03;;;;;;;5.65;3.45;;;21.20;99.90;;;;;;5032270;28;20022;-48
2024/01/05 04:42:29;;;;;;;6.25;3.50;;;21.20;99.90;;;;;;5032371;28;20381;-48
2024/01/05 04:44:55;;;;;;;5.25;3.25;;;21.10;99.90;;;;;;5032410;28;20017;-49
2024/01/05 04:47:21;;;;;;;5.72;3.80;;;21.10;99.90;;;;;;5032263;28;20028;-49
2024/01/05 04:49:47;;;;;;;5.70;3.60;;;21.10;99.90;;;;;;5031405;28;20029;-48
2024/01/05 04:52:13;;;;;;;5.78;3.55;;;21.10;99.90;;;;;;5032089;28;20022;-48
2024/01/05 04:54:39;;;;;;;6.65;4.15;;;21.20;99.90;;;;;;5032013;28;20488;-49
2024/01/05 04:57:04;;;;;;;5.00;3.42;;;21.10;99.90;;;;;;5032344;28;20030;-49
2024/01/05 04:59:30;;;;;;;5.18;3.35;;;21.20;99.90;;;;;;5031988;28;20528;-49
2024/01/05 05:01:57;;;;;;;6.28;3.63;;;21.10;99.90;;;;;;5030926;28;20060;-48
2024/01/05 05:04:22;;;;;;;6.20;3.63;;;21.10;99.90;;;;;;5032156;28;20026;-48
2024/01/05 05:06:48;;;;;;;6.22;3.60;;;21.10;99.90;;;;;;5031719;28;20094;-48
2024/01/05 05:09:14;;;;;;;5.57;3.60;;;21.10;99.90;;;;;;5031718;28;20025;-47
2024/01/05 05:11:40;;;;;;;3.35;2.55;;;21.10;99.90;;;;;;5031942;28;20032;-48
2024/01/05 05:14:05;;;;;;;4.43;3.20;;;21.10;99.90;;;;;;5032075;28;20061;-47
2024/01/05 05:16:32;;;;;;;4.35;3.00;;;21.10;99.90;;;;;;5031702;28;20486;-48
2024/01/05 05:18:58;;;;;;;5.45;3.95;;;21.10;99.90;;;;;;5031727;28;20032;-50
2024/01/05 05:21:25;;;;;;;4.13;3.08;;;21.10;99.90;;;;;;5031931;28;20034;-49
2024/01/05 05:23:51;;;;;;;5.20;3.42;;;21.10;99.90;;;;;;5031637;28;20068;-49
2024/01/05 05:26:16;;;;;;;6.90;3.40;;;21.00;99.90;;;;;;5031733;28;20025;-49
2024/01/05 05:28:42;;;;;;;3.85;2.83;;;21.10;99.90;;;;;;5031663;28;20029;-47
2024/01/05 05:31:08;;;;;;;3.40;2.70;;;21.10;99.90;;;;;;5031583;28;20421;-48
2024/01/05 05:33:34;;;;;;;6.43;3.30;;;21.00;99.90;;;;;;5031745;28;20018;-48
2024/01/05 05:36:00;;;;;;;5.22;3.17;;;21.10;99.90;;;;;;5031408;28;20511;-49
2024/01/05 05:38:26;;;;;;;5.72;3.38;;;21.10;99.90;;;;;;5031884;28;20037;-49
2024/01/05 05:40:51;;;;;;;4.75;2.92;;;21.00;99.90;;;;;;5031547;28;20112;-48
2024/01/05 05:43:17;;;;;;;4.03;2.90;;;21.10;99.90;;;;;;5030545;28;21051;-49
2024/01/05 05:45:43;;;;;;;3.60;2.72;;;21.10;99.90;;;;;;5031564;28;20100;-48
2024/01/05 05:48:10;;;;;;;4.80;2.58;;;21.10;99.90;;;;;;5031499;28;20030;-48
2024/01/05 05:50:36;;;;;;;5.28;2.60;;;21.10;99.90;;;;;;5031506;28;20025;-48
2024/01/05 05:53:03;;;;;;;3.22;2.45;;;21.10;99.90;;;;;;5031368;28;20519;-48
2024/01/05 05:55:29;;;;;;;5.30;2.63;;;21.10;99.90;;;;;;5031350;28;20425;-48
2024/01/05 05:57:57;;;;;;;3.20;2.45;;;21.00;99.90;;;;;;5031451;28;20267;-48
2024/01/05 06:00:24;;;;;;;3.38;2.58;;;21.00;99.90;;;;;;5027674;28;20036;-48
2024/01/05 06:02:49;;;;;;;4.13;2.43;;;21.00;99.90;;;;;;5005776;28;20034;-49
2024/01/05 06:05:15;;;;;;;2.95;2.35;;;21.00;99.90;;;;;;5012401;28;20014;-49
2024/01/05 06:07:41;;;;;;;2.30;2.00;;;21.00;99.90;;;;;;5014113;28;20013;-48
2024/01/05 06:10:07;;;;;;;3.30;2.35;;;21.00;99.90;;;;;;5014723;28;20022;-48
2024/01/05 06:12:33;;;;;;;4.65;2.25;;;21.00;99.90;;;;;;5014844;28;20025;-48
2024/01/05 06:14:59;;;;;;;2.38;1.83;;;21.00;99.90;;;;;;5015131;28;20026;-48
2024/01/05 06:17:25;;;;;;;3.85;2.20;;;21.00;99.90;;;;;;5012441;28;20061;-48
2024/01/05 06:19:51;;;;;;;4.10;2.15;;;21.00;99.90;;;;;;5015081;28;20104;-49
2024/01/05 06:22:17;;;;;;;3.10;1.92;;;20.90;99.90;;;;;;5014904;28;20085;-48
2024/01/05 06:24:44;;;;;;;4.43;2.28;;;20.90;99.90;;;;;;5014949;28;20017;-48
2024/01/05 06:27:11;;;;;;;2.95;2.00;;;20.90;99.90;;;;;;5014885;28;20021;-48
2024/01/05 06:29:37;;;;;;;2.40;1.70;;;20.90;99.90;;;;;;5014831;28;20022;-48
2024/01/05 06:32:03;;;;;;;4.22;2.33;;;20.90;99.90;;;;;;5013663;28;20093;-48
2024/01/05 06:34:29;;;;;;;3.22;1.52;;;20.90;99.90;;;;;;5014835;28;20030;-48
2024/01/05 06:36:55;;;;;;;2.90;1.50;;;20.90;99.90;;;;;;5013834;28;20037;-48
2024/01/05 06:39:21;;;;;;;2.40;1.80;;;20.90;99.90;;;;;;5014518;28;20009;-48
2024/01/05 06:41:47;;;;;;;5.10;1.83;;;20.90;99.90;;;;;;5014872;28;20033;-48
2024/01/05 06:44:13;;;;;;;2.70;1.75;;;20.80;99.90;;;;;;5014705;28;20022;-48
2024/01/05 06:46:38;;;;;;;2.90;1.60;;;20.80;99.90;;;;;;5014456;28;20097;-48
2024/01/05 06:49:04;;;;;;;3.08;1.65;;;20.80;99.90;;;;;;5014525;28;20018;-48
2024/01/05 06:51:37;;;;;;;3.25;2.00;;;20.80;99.90;;;;;;5014259;28;20106;-48
2024/01/05 06:54:02;;;;;;;2.85;1.70;;;20.80;99.90;;;;;;5014346;28;20018;-47
2024/01/05 06:56:32;;;;;;;1.75;1.40;;;20.80;99.90;;;;;;5014292;28;20045;-50
2024/01/05 06:59:01;;;;;;;2.72;1.48;;;20.80;99.90;;;;;;5014580;28;20426;-48
2024/01/05 07:01:27;;;;;;;2.75;1.50;;;20.80;99.90;;;;;;5025757;28;20045;-48
2024/01/05 07:03:53;;;;;;;3.55;1.73;;;20.70;99.90;;;;;;5033809;28;20021;-48
2024/01/05 07:06:19;;;;;;;3.05;1.58;;;20.80;99.90;;;;;;5034075;28;20389;-48
2024/01/05 07:08:45;;;;;;;3.20;1.35;;;20.80;99.90;;;;;;5033873;28;20156;-50
2024/01/05 07:11:20;;;;;;;1.88;1.50;;;20.70;99.90;;;;;;5033812;28;20029;-49
2024/01/05 07:13:46;;;;;;;3.58;1.70;;;20.70;99.90;;;;;;5033042;28;20204;-49
2024/01/05 07:16:19;;;;;;;2.45;1.52;;;20.70;99.90;;;;;;5032620;28;20105;-49
2024/01/05 07:18:46;;;;;;;1.73;1.10;;;20.70;99.90;;;;;;5033806;28;20128;-49
2024/01/05 07:21:13;;;;;;;1.73;1.20;;;20.70;99.90;;;;;;5032715;28;20025;-49
2024/01/05 07:23:39;;;;;;;1.70;1.13;;;20.70;99.90;;;;;;5033734;28;20108;-49
2024/01/05 07:26:05;;;;;;;2.30;1.27;;;20.70;99.90;;;;;;5033635;28;20393;-49
2024/01/05 07:28:30;;;;;;;4.45;1.33;;;20.60;99.90;;;;;;5033912;28;20053;-48
2024/01/05 07:30:56;;;;;;;4.63;1.52;;;20.70;99.90;;;;;;5033748;28;20017;-49
2024/01/05 07:33:22;;;;;;;2.03;1.25;;;20.60;99.90;;;;;;5033645;28;20482;-48
2024/01/05 07:35:48;;;;;;;3.45;1.30;;;20.60;99.90;;;;;;5033212;28;20026;-48
2024/01/05 07:38:14;;;;;;;1.40;0.93;;;20.60;99.90;;;;;;5033583;28;20067;-48
2024/01/05 07:40:40;;;;;;;2.53;1.13;;;20.60;99.90;;;;;;5033345;28;20374;-49
2024/01/05 07:43:05;;;;;;;1.95;1.05;;;20.60;99.90;;;;;;5032107;28;20474;-49
2024/01/05 07:45:31;;;;;;;1.48;1.20;;;20.60;99.90;;;;;;5033452;28;20087;-49
2024/01/05 07:47:58;;;;;;;2.38;1.30;;;20.60;99.90;;;;;;5032187;28;20083;-49
2024/01/05 07:50:24;;;;;;;2.33;1.15;;;20.60;99.90;;;;;;5033271;28;20104;-49
2024/01/05 07:52:51;;;;;;;2.63;1.20;;;20.50;99.90;;;;;;5033019;28;20029;-49
2024/01/05 07:55:16;;;;;;;2.75;1.45;;;20.50;99.90;;;;;;5033135;28;20021;-49
2024/01/05 07:57:43;;;;;;;1.08;0.90;;;20.60;99.90;;;;;;5033200;28;20075;-49
2024/01/05 08:00:10;;;;;;;2.50;1.23;;;20.50;99.90;;;;;;5031576;28;20373;-48
2024/01/05 08:02:36;;;;;;;1.98;1.30;;;20.60;99.90;;;;;;5032926;28;20490;-49
2024/01/05 08:05:02;;;;;;;2.05;1.17;;;20.60;99.90;;;;;;5031947;28;20033;-48
2024/01/05 08:07:28;;;;;;;1.60;1.10;;;20.60;99.90;;;;;;5033098;28;20022;-49
2024/01/05 08:09:54;;;;;;;1.63;0.63;;;20.60;99.90;;;;;;5032788;28;20022;-49
2024/01/05 08:12:20;;;;;;;0.70;0.70;;;20.60;99.90;;;;;;5031480;28;20061;-50
2024/01/05 08:14:46;;;;;;;2.40;1.00;;;20.60;99.90;;;;;;5032770;28;20024;-49
2024/01/05 08:17:12;;;;;;;3.10;0.98;;;20.70;99.90;;;;;;5032701;28;20037;-49
2024/01/05 08:19:38;;;;;;;1.38;0.80;;;20.70;99.90;;;;;;5032718;28;20087;-49
2024/01/05 08:22:03;;;;;;;1.15;0.75;;;20.70;99.90;;;;;;5032751;28;20032;-49
2024/01/05 08:24:29;;;;;;;2.15;0.82;;;20.70;99.90;;;;;;5031750;28;20049;-49
2024/01/05 08:26:55;;;;;;;2.15;0.90;;;20.80;99.90;;;;;;5032704;28;20443;-49
2024/01/05 08:29:22;;;;;;;1.60;1.23;;;20.80;99.90;;;;;;5032708;28;20052;-49
2024/01/05 08:31:49;;;;;;;1.45;0.88;;;20.80;99.90;;;;;;5031400;28;20024;-48
2024/01/05 08:34:16;;;;;;;1.67;1.02;;;20.90;99.90;;;;;;5032383;28;20493;-49
2024/01/05 08:36:42;;;;;;;2.53;0.88;;;20.90;99.90;;;;;;5032282;28;20041;-49
2024/01/05 08:39:08;;;;;;;1.85;1.10;;;21.00;99.90;;;;;;5031251;28;20083;-49
2024/01/05 08:41:34;;;;;;;1.63;1.10;;;21.00;99.90;;;;;;5004859;28;20021;-49
2024/01/05 08:44:00;;;;;;;1.88;0.98;;;21.00;99.90;;;;;;5031214;28;20477;-48
2024/01/05 08:46:28;;;;;;;1.98;1.10;;;21.10;99.90;;;;;;5032211;28;20021;-49
2024/01/05 08:48:54;;;;;;;2.72;1.30;;;21.10;99.90;;;;;;5032259;28;20021;-49
2024/01/05 08:51:20;;;;;;;2.88;1.30;;;21.10;99.90;;;;;;5030730;28;20432;-48
2024/01/05 08:53:46;;;;;;;4.13;1.13;;;21.20;99.90;;;;;;5032049;28;20466;-48
2024/01/05 08:56:13;;;;;;;2.97;1.35;;;21.20;99.90;;;;;;5032109;28;20054;-48
2024/01/05 08:58:39;;;;;;;1.83;1.08;;;21.20;99.90;;;;;;5030954;28;20017;-49
2024/01/05 09:01:04;;;;;;;1.55;1.00;;;21.30;99.90;;;;;;5031785;28;20505;-49
2024/01/05 09:03:30;;;;;;;1.77;0.95;;;21.30;99.90;;;;;;5032062;28;20040;-49
2024/01/05 09:05:58;;;;;;;3.85;1.42;;;21.40;99.90;;;;;;5031849;28;20049;-49
2024/01/05 09:08:24;;;;;;;2.42;1.08;;;21.40;99.90;;;;;;5031927;28;20474;-49
2024/01/05 09:10:49;;;;;;;4.50;1.40;;;21.40;99.90;;;;;;5031753;28;20042;-49
2024/01/05 09:13:15;;;;;;;3.42;1.33;;;21.50;99.90;;;;;;5030670;28;20024;-49
2024/01/05 09:15:41;;;;;;;2.75;1.50;;;21.50;99.90;;;;;;5031558;28;20108;-50
2024/01/05 09:18:07;;;;;;;3.15;1.58;;;21.50;99.90;;;;;;5031977;28;20033;-49
2024/01/05 09:20:32;;;;;;;1.95;1.13;;;21.60;99.90;;;;;;5031990;28;20076;-49
2024/01/05 09:22:58;;;;;;;3.92;1.23;;;21.60;99.90;;;;;;5031816;28;20553;-50
2024/01/05 09:25:24;;;;;;;3.53;1.25;;;21.60;99.90;;;;;;5030479;28;20029;-49
2024/01/05 09:27:50;;;;;;;2.63;1.52;;;21.70;99.90;;;;;;5031579;28;20049;-51
2024/01/05 09:30:16;;;;;;;2.05;1.23;;;21.70;99.90;;;;;;5031648;28;20026;-50
2024/01/05 09:32:41;;;;;;;2.65;1.63;;;21.80;99.90;;;;;;5031534;28;20021;-56
2024/01/05 09:35:08;;;;;;;2.97;1.35;;;21.80;99.90;;;;;;5031618;28;20071;-50
2024/01/05 09:37:35;;;;;;;2.72;1.25;;;21.80;99.90;;;;;;5033901;28;20493;-50
2024/01/05 09:40:02;;;;;;;1.90;1.13;;;21.80;99.90;;;;;;5036006;28;20033;-49
2024/01/05 09:42:28;;;;;;;2.47;1.20;;;21.90;99.90;;;;;;5034534;28;20498;-51
2024/01/05 09:44:55;;;;;;;2.92;1.60;;;21.90;99.90;;;;;;5035558;28;20036;-50
2024/01/05 09:47:21;;;;;;;3.45;1.15;;;22.00;99.90;;;;;;5034343;28;20018;-50
2024/01/05 09:49:49;;;;;;;2.75;1.42;;;22.00;99.90;;;;;;5035493;28;20405;-50
2024/01/05 09:52:18;;;;;;;4.68;1.52;;;22.00;99.90;;;;;;5034136;28;20032;-50
2024/01/05 09:54:43;;;;;;;3.72;1.70;;;22.00;99.90;;;;;;5033923;28;20416;-50
2024/01/05 09:57:17;;;;;;;3.97;1.80;;;22.10;99.90;;;;;;5035447;28;20044;-50
2024/01/05 09:59:46;;;;;;;4.30;1.67;;;22.10;99.90;;;;;;5035358;28;20022;-50
2024/01/05 10:02:17;;;;;;;4.10;1.85;;;22.10;99.90;;;;;;5035191;28;20099;-50
2024/01/05 10:04:43;;;;;;;3.35;1.90;;;22.10;99.90;;;;;;5035339;28;20025;-50
2024/01/05 10:07:09;;;;;;;3.42;1.70;;;22.20;99.90;;;;;;5035113;28;20025;-50
2024/01/05 10:09:51;;;;;;;2.78;1.85;;;22.20;99.90;;;;;;5035458;28;20520;-49
2024/01/05 10:12:18;;;;;;;3.47;1.50;;;22.30;99.90;;;;;;5035042;28;20478;-49
2024/01/05 10:14:46;;;;;;;3.17;1.70;;;22.30;99.90;;;;;;5035207;28;20458;-49
2024/01/05 10:17:12;;;;;;;4.13;2.15;;;22.40;99.90;;;;;;5034900;28;20034;-49
2024/01/05 10:19:41;;;;;;;2.65;1.60;;;22.40;99.90;;;;;;5035005;28;20481;-50
2024/01/05 10:22:12;;;;;;;3.63;2.03;;;22.40;99.90;;;;;;5035266;28;20034;-49
2024/01/05 10:24:39;;;;;;;5.57;2.40;;;22.40;99.90;;;;;;5007369;28;20037;-49
2024/01/05 10:27:07;;;;;;;5.22;1.80;;;22.40;99.90;;;;;;5035268;28;20409;-49
2024/01/05 10:29:37;;;;;;;4.07;1.80;;;22.40;99.90;;;;;;5034954;28;20128;-50
2024/01/05 10:32:17;;;;;;;4.40;2.30;;;22.50;99.90;;;;;;5023715;28;20082;-50
2024/01/05 10:34:47;;;;;;;3.88;2.30;;;22.50;99.90;;;;;;5034394;28;20029;-49
2024/01/05 10:37:17;;;;;;;3.40;2.10;;;22.50;99.90;;;;;;5034626;28;20516;-49
2024/01/05 10:39:47;;;;;;;3.83;1.90;;;22.40;99.90;;;;;;5034472;28;20425;-49
2024/01/05 10:42:20;;;;;;;6.57;1.95;;;22.50;99.90;;;;;;5034686;28;20029;-51
2024/01/05 10:44:47;;;;;;;8.60;2.20;;;22.40;99.90;;;;;;5034475;28;20021;-49
2024/01/05 10:47:14;;;;;;;6.32;3.03;;;22.40;99.90;;;;;;5033917;28;20100;-50
2024/01/05 10:49:50;;;;;;;4.13;3.05;;;22.40;99.90;;;;;;5033986;28;20033;-48
2024/01/05 10:52:17;;;;;;;4.95;2.70;;;22.40;99.90;;;;;;5034309;28;20088;-49
2024/01/05 10:54:52;;;;;;;3.95;2.33;;;22.40;99.90;;;;;;5034168;28;20033;-49
2024/01/05 10:57:19;;;;;;;7.30;3.30;;;22.40;99.90;;;;;;5034234;28;20041;-50
2024/01/05 10:59:49;;;;;;;3.05;1.77;;;22.40;99.90;;;;;;5034259;28;20021;-50
2024/01/05 11:02:26;;;;;;;4.55;2.35;;;22.40;99.90;;;;;;5032624;28;20056;-50
2024/01/05 11:05:09;;;;;;;4.05;2.72;;;22.40;99.90;;;;;;5034098;28;20017;-49
2024/01/05 11:07:36;;;;;;;4.82;2.67;;;22.30;99.90;;;;;;5000983;28;20394;-50
2024/01/05 11:10:02;;;;;;;4.97;3.40;;;22.30;99.90;;;;;;5026611;28;20056;-50
2024/01/05 11:13:07;;;;;;;6.75;3.50;;;22.40;99.90;;;;;;5033903;28;20032;-49
2024/01/05 11:15:49;;;;;;;4.25;2.72;;;22.30;99.90;;;;;;5030165;28;20098;-49
2024/01/05 11:18:45;;;;;;;6.72;3.03;;;22.40;99.90;;;;;;5033688;28;20116;-50
2024/01/05 11:21:17;;;;;;;3.42;2.47;;;22.30;99.90;;;;;;5006563;28;20026;-50
2024/01/05 11:23:44;;;;;;;5.20;2.40;;;22.30;99.90;;;;;;5033817;28;20390;-50
2024/01/05 11:26:49;;;;;;;5.03;2.63;;;22.30;99.90;;;;;;5033765;28;20021;-49
2024/01/05 11:29:48;;;;;;;3.53;2.45;;;22.30;99.90;;;;;;4972630;28;20034;-50
2024/01/05 11:32:42;;;;;;;6.43;2.72;;;22.30;99.90;;;;;;4972727;28;20053;-50
2024/01/05 11:35:17;;;;;;;6.47;2.78;;;22.30;99.90;;;;;;5023972;28;20033;-49
2024/01/05 11:37:50;;;;;;;4.60;2.72;;;22.30;99.90;;;;;;5033454;28;20517;-51
2024/01/05 11:40:28;;;;;;;8.05;3.13;;;22.30;99.90;;;;;;5033664;28;20056;-49
2024/01/05 11:42:54;;;;;;;6.45;3.20;;;22.30;99.90;;;;;;5033433;28;20030;-49
2024/01/05 11:45:41;;;;;;;4.43;2.55;;;22.40;99.90;;;;;;5033581;28;20068;-49
2024/01/05 11:48:08;;;;;;;5.55;2.42;;;22.50;99.90;;;;;;5019727;28;20119;-50
2024/01/05 11:50:35;;;;;;;5.43;2.58;;;22.50;99.90;;;;;;5033879;28;20032;-49
2024/01/05 11:53:17;;;;;;;4.40;2.88;;;22.60;99.90;;;;;;5033186;28;20544;-50
2024/01/05 11:55:53;;;;;;;4.85;2.60;;;22.60;99.90;;;;;;5033173;28;20022;-50
2024/01/05 11:58:21;;;;;;;4.53;2.73;;;22.70;99.90;;;;;;5033058;28;20501;-49
2024/01/05 12:00:48;;;;;;;5.40;2.58;;;22.80;99.90;;;;;;5032605;28;20051;-49
2024/01/05 12:03:15;;;;;;;7.53;3.50;;;22.90;99.90;;;;;;5033101;28;20099;-49
2024/01/05 12:05:42;;;;;;;5.35;2.80;;;22.90;99.90;;;;;;5032772;28;20025;-49
2024/01/05 12:08:11;;;;;;;6.67;2.70;;;22.90;99.90;;;;;;5033393;28;20026;-49
2024/01/05 12:10:40;;;;;;;4.63;2.67;;;22.90;99.90;;;;;;5031928;28;20021;-49
2024/01/05 12:13:06;;;;;;;5.88;3.17;;;22.90;99.90;;;;;;5033149;28;20021;-51
2024/01/05 12:15:33;;;;;;;6.45;3.40;;;23.00;99.90;;;;;;5032530;28;20496;-49
2024/01/05 12:18:09;;;;;;;5.97;3.25;;;23.00;99.90;;;;;;5032789;28;20083;-49
2024/01/05 12:20:35;;;;;;;6.25;3.72;;;22.90;99.90;;;;;;5032931;28;20032;-50
2024/01/05 12:23:01;;;;;;;3.80;2.72;;;22.90;99.90;;;;;;5032943;28;20057;-50
2024/01/05 12:25:27;;;;;;;8.25;4.25;;;22.90;99.90;;;;;;5032779;28;20485;-51
2024/01/05 12:27:53;;;;;;;5.53;2.90;;;22.90;99.90;;;;;;5032458;28;20048;-50
2024/01/05 12:30:21;;;;;;;5.18;3.10;;;22.90;99.90;;;;;;5032584;28;20018;-49
2024/01/05 12:32:50;;;;;;;3.75;2.75;;;22.90;99.90;;;;;;5032365;28;20067;-51
2024/01/05 12:35:16;;;;;;;6.30;2.97;;;22.90;99.90;;;;;;5032416;28;20053;-50
2024/01/05 12:37:53;;;;;;;5.82;3.00;;;22.90;99.90;;;;;;5032399;28;20104;-50
2024/01/05 12:40:28;;;;;;;9.75;3.75;;;22.80;99.90;;;;;;5032526;28;20044;-48
2024/01/05 12:42:54;;;;;;;11.25;3.15;;;22.80;99.90;;;;;;5023592;28;20237;-48
2024/01/05 12:45:22;;;;;;;10.68;3.17;;;22.80;99.90;;;;;;5000147;28;20034;-50
2024/01/05 12:47:51;;;;;;;5.38;3.00;;;22.80;99.90;;;;;;4995983;28;20029;-51
2024/01/05 12:50:25;;;;;;;7.20;3.00;;;22.80;99.90;;;;;;5001434;28;20109;-50